Time;durP1;ratioP1;P1;durP2;ratioP2;P2;SDS_P1;SDS_P2;PMS_P1;PMS_P2;Temp;Humidity;BMP_temperature;BMP_pressure;BME280_temperature;BME280_humidity;BME280_pressure;Samples;Min_cycle;Max_cycle;Signal;HPM_P1;HPM_P2
2022/12/16 00:00:22;;;;;;;2.45;1.65;;;3.70;42.20;;;;;;4992387;28;20228;-72
2022/12/16 00:02:47;;;;;;;2.40;1.45;;;3.10;46.10;;;;;;4991968;28;20567;-72
2022/12/16 00:05:13;;;;;;;3.80;2.20;;;3.70;44.10;;;;;;4992147;28;20224;-72
2022/12/16 00:07:39;;;;;;;4.17;2.20;;;4.20;42.20;;;;;;4991569;28;20186;-72
2022/12/16 00:10:05;;;;;;;3.23;1.90;;;4.50;41.50;;;;;;4996366;28;20236;-71
2022/12/16 00:12:31;;;;;;;3.10;1.92;;;4.60;40.80;;;;;;5003838;28;20185;-72
2022/12/16 00:14:56;;;;;;;2.10;1.20;;;4.70;40.50;;;;;;5007459;28;20173;-71
2022/12/16 00:17:22;;;;;;;4.40;3.10;;;4.90;39.50;;;;;;5011839;28;20201;-72
2022/12/16 00:19:48;;;;;;;2.30;1.40;;;4.80;40.00;;;;;;5011381;28;20710;-73
2022/12/16 00:22:13;;;;;;;11.20;3.37;;;4.80;40.00;;;;;;5011443;28;20725;-72
2022/12/16 00:24:39;;;;;;;2.00;1.07;;;4.50;40.50;;;;;;5011625;28;20177;-71
2022/12/16 00:27:04;;;;;;;2.00;1.13;;;4.60;41.10;;;;;;5011548;28;20327;-73
2022/12/16 00:29:30;;;;;;;2.60;1.50;;;4.60;40.70;;;;;;5011415;28;20551;-72
2022/12/16 00:31:55;;;;;;;2.67;1.77;;;4.30;41.50;;;;;;5011408;28;20245;-72
2022/12/16 00:34:21;;;;;;;2.33;1.50;;;4.30;40.90;;;;;;5011150;28;20188;-71
2022/12/16 00:36:46;;;;;;;38.40;3.67;;;4.50;40.50;;;;;;5010625;28;20236;-73
2022/12/16 00:39:12;;;;;;;3.80;1.53;;;4.70;40.20;;;;;;5011588;28;20191;-72
2022/12/16 00:41:38;;;;;;;3.07;2.23;;;4.60;40.20;;;;;;5011212;28;20177;-72
2022/12/16 00:44:03;;;;;;;4.23;2.50;;;4.40;40.40;;;;;;5011295;28;20252;-71
2022/12/16 00:46:29;;;;;;;2.77;1.90;;;4.50;40.80;;;;;;5011275;28;20218;-72
2022/12/16 00:48:55;;;;;;;1.97;1.13;;;4.60;40.20;;;;;;5011541;28;20412;-72
2022/12/16 00:51:20;;;;;;;2.87;1.73;;;4.70;40.30;;;;;;5011624;28;20174;-73
2022/12/16 00:53:46;;;;;;;4.50;1.83;;;4.60;40.20;;;;;;5014322;28;20180;-72
2022/12/16 00:56:18;;;;;;;2.10;1.33;;;4.60;40.10;;;;;;5014928;28;20240;-71
2022/12/16 00:58:44;;;;;;;2.10;1.30;;;4.00;40.80;;;;;;5015300;28;20164;-72
2022/12/16 01:01:10;;;;;;;2.30;1.47;;;3.20;43.40;;;;;;5015387;28;20174;-71
2022/12/16 01:03:37;;;;;;;3.65;2.30;;;3.30;45.00;;;;;;5014863;28;20165;-72
2022/12/16 01:06:11;;;;;;;2.58;1.70;;;3.90;43.40;;;;;;5014612;28;20198;-72
2022/12/16 01:08:37;;;;;;;7.55;2.40;;;4.10;41.90;;;;;;5015124;28;20169;-72
2022/12/16 01:11:03;;;;;;;4.23;2.40;;;4.10;41.60;;;;;;5015229;28;20196;-72
2022/12/16 01:13:29;;;;;;;2.83;1.92;;;4.10;42.10;;;;;;5014904;28;20457;-72
2022/12/16 01:15:58;;;;;;;2.30;1.40;;;4.10;42.30;;;;;;5014471;28;20220;-72
2022/12/16 01:18:24;;;;;;;4.85;2.20;;;4.30;41.50;;;;;;5014661;28;20400;-71
2022/12/16 01:20:50;;;;;;;3.87;2.20;;;4.10;41.70;;;;;;5014693;28;20653;-72
2022/12/16 01:23:15;;;;;;;3.80;2.10;;;4.20;41.30;;;;;;5014795;28;20173;-72
2022/12/16 01:25:41;;;;;;;3.50;2.13;;;4.40;41.00;;;;;;5014649;28;20692;-72
2022/12/16 01:28:07;;;;;;;2.00;1.13;;;4.00;40.80;;;;;;5014742;28;20174;-72
2022/12/16 01:30:32;;;;;;;2.70;1.93;;;3.80;42.00;;;;;;5014630;28;20256;-70
2022/12/16 01:32:58;;;;;;;3.97;1.70;;;2.60;45.00;;;;;;5014080;28;20415;-72
2022/12/16 01:35:23;;;;;;;2.20;1.27;;;2.60;47.30;;;;;;5014455;28;20174;-72
2022/12/16 01:37:49;;;;;;;2.33;1.40;;;3.00;45.70;;;;;;5014297;28;20176;-72
2022/12/16 01:40:21;;;;;;;6.47;3.33;;;2.90;45.30;;;;;;5014615;28;20231;-70
2022/12/16 01:42:46;;;;;;;2.90;1.83;;;3.00;45.70;;;;;;5014005;28;20201;-70
2022/12/16 01:45:41;;;;;;;5.90;3.00;;;3.40;44.10;;;;;;5014246;28;20212;-72
2022/12/16 01:48:17;;;;;;;2.10;1.10;;;3.70;44.20;;;;;;4972848;28;20186;-71
2022/12/16 01:50:43;;;;;;;2.50;1.40;;;3.70;43.50;;;;;;4972906;28;20694;-72
2022/12/16 01:53:09;;;;;;;2.13;1.17;;;3.80;42.80;;;;;;4972636;28;20214;-72
2022/12/16 01:55:40;;;;;;;2.40;1.50;;;3.60;43.10;;;;;;4972605;28;20210;-72
2022/12/16 01:58:11;;;;;;;3.72;2.13;;;3.70;42.90;;;;;;4972766;28;20182;-72
2022/12/16 02:00:39;;;;;;;2.97;2.05;;;3.90;41.80;;;;;;4972826;28;20174;-72
2022/12/16 02:03:05;;;;;;;2.78;1.88;;;3.40;43.40;;;;;;4972473;28;20186;-72
2022/12/16 02:05:35;;;;;;;6.03;3.40;;;3.60;44.00;;;;;;4971987;28;20183;-72
2022/12/16 02:08:06;;;;;;;4.07;2.20;;;3.90;42.60;;;;;;4971982;28;20222;-72
2022/12/16 02:10:43;;;;;;;2.58;1.75;;;4.10;42.50;;;;;;4970726;28;20194;-71
2022/12/16 02:13:24;;;;;;;16.67;2.75;;;3.80;42.60;;;;;;4969592;28;20179;-72
2022/12/16 02:16:02;;;;;;;2.67;1.50;;;4.90;42.60;;;;;;4972325;28;20214;-72
2022/12/16 02:18:30;;;;;;;2.35;1.30;;;4.40;41.20;;;;;;4972166;28;20654;-69
2022/12/16 02:21:40;;;;;;;2.20;1.30;;;4.60;39.90;;;;;;4967772;28;20459;-72
2022/12/16 02:24:28;;;;;;;5.43;3.30;;;4.00;41.00;;;;;;4979176;28;20186;-72
2022/12/16 02:27:38;;;;;;;2.60;1.40;;;3.90;41.10;;;;;;4993961;28;20266;-72
2022/12/16 02:30:18;;;;;;;3.15;1.67;;;3.40;43.90;;;;;;4993989;28;20158;-72
2022/12/16 02:33:12;;;;;;;2.70;1.60;;;3.50;43.00;;;;;;4993506;28;20704;-72
2022/12/16 02:36:07;;;;;;;2.42;1.40;;;4.10;42.30;;;;;;4993711;28;20611;-73
2022/12/16 02:38:54;;;;;;;3.10;1.52;;;4.40;41.30;;;;;;4991126;28;20190;-72
2022/12/16 02:41:59;;;;;;;3.20;2.15;;;4.30;40.90;;;;;;4991368;28;20688;-71
2022/12/16 02:44:44;;;;;;;3.28;1.95;;;4.30;40.50;;;;;;4991064;28;20182;-72
2022/12/16 02:47:10;;;;;;;2.97;1.85;;;4.00;41.10;;;;;;4991393;28;20619;-73
2022/12/16 02:49:46;;;;;;;2.30;1.30;;;3.90;41.30;;;;;;4991213;28;20186;-72
2022/12/16 02:52:13;;;;;;;5.18;2.80;;;4.10;41.10;;;;;;4991032;28;20269;-72
2022/12/16 02:54:39;;;;;;;2.30;1.20;;;3.90;41.60;;;;;;4991186;28;20186;-72
2022/12/16 02:57:10;;;;;;;3.28;1.48;;;3.90;41.40;;;;;;4991041;28;20255;-72
2022/12/16 03:00:00;;;;;;;2.92;1.58;;;4.20;41.10;;;;;;4991205;28;20181;-72
2022/12/16 03:02:26;;;;;;;2.53;1.30;;;4.30;39.60;;;;;;4990730;28;20190;-72
2022/12/16 03:05:00;;;;;;;7.70;2.00;;;4.00;40.80;;;;;;4990782;28;20613;-72
2022/12/16 03:07:30;;;;;;;2.40;1.30;;;4.00;41.10;;;;;;4990688;28;20201;-72
2022/12/16 03:09:58;;;;;;;2.30;1.30;;;4.10;41.10;;;;;;4990642;28;20683;-72
2022/12/16 03:12:24;;;;;;;2.20;1.10;;;4.20;40.90;;;;;;4990823;28;20634;-72
2022/12/16 03:14:53;;;;;;;2.72;1.75;;;4.20;41.60;;;;;;4990753;28;20233;-71
2022/12/16 03:17:21;;;;;;;2.50;1.50;;;4.20;40.80;;;;;;4992266;28;20209;-73
2022/12/16 03:19:56;;;;;;;5.45;1.67;;;4.50;40.40;;;;;;4992930;28;20170;-73
2022/12/16 03:22:27;;;;;;;2.72;1.60;;;4.40;41.30;;;;;;4992769;28;20378;-72
2022/12/16 03:24:53;;;;;;;2.70;1.67;;;4.20;40.80;;;;;;4992799;28;20193;-72
2022/12/16 03:27:31;;;;;;;4.57;2.50;;;3.90;41.40;;;;;;4992992;28;20352;-72
2022/12/16 03:30:15;;;;;;;2.40;1.30;;;3.60;42.70;;;;;;4992770;28;20590;-72
2022/12/16 03:33:22;;;;;;;3.08;1.70;;;3.30;43.30;;;;;;4993010;28;20597;-72
2022/12/16 03:35:56;;;;;;;5.20;3.25;;;3.30;43.70;;;;;;4951837;29;20813;-74
2022/12/16 03:38:23;;;;;;;3.75;1.35;;;3.20;43.70;;;;;;4952077;29;20567;-72
2022/12/16 03:40:50;;;;;;;13.00;2.70;;;2.90;44.50;;;;;;4951894;29;20227;-74
2022/12/16 03:43:16;;;;;;;2.40;1.30;;;3.10;44.30;;;;;;4951850;29;20175;-72
2022/12/16 03:45:46;;;;;;;2.45;1.30;;;3.20;43.60;;;;;;4951870;29;20207;-73
2022/12/16 03:48:13;;;;;;;2.70;1.50;;;3.40;43.20;;;;;;4952116;29;20686;-72
2022/12/16 03:50:39;;;;;;;2.40;1.30;;;3.30;43.70;;;;;;4951610;29;20187;-72
2022/12/16 03:53:05;;;;;;;2.55;1.30;;;3.20;43.60;;;;;;4951457;29;20188;-73
2022/12/16 03:55:31;;;;;;;2.60;1.50;;;2.90;44.10;;;;;;4951517;29;20199;-73
2022/12/16 03:57:57;;;;;;;2.20;1.20;;;2.60;45.70;;;;;;4951379;29;20600;-73
2022/12/16 04:00:24;;;;;;;3.07;2.00;;;2.60;46.50;;;;;;4951487;29;20190;-72
2022/12/16 04:02:49;;;;;;;2.75;1.42;;;2.60;46.40;;;;;;4951512;29;20198;-73
2022/12/16 04:05:15;;;;;;;4.40;2.43;;;2.90;46.00;;;;;;4951185;29;20650;-74
2022/12/16 04:07:41;;;;;;;3.23;2.17;;;3.20;44.40;;;;;;4951242;29;20199;-73
2022/12/16 04:10:07;;;;;;;3.17;1.87;;;3.10;44.80;;;;;;4951624;29;20227;-72
2022/12/16 04:26:23;;;;;;;2.35;1.20;;;3.70;42.80;;;;;;4992328;28;20751;-72
2022/12/16 04:28:49;;;;;;;4.17;2.73;;;3.70;42.20;;;;;;4991809;28;20182;-73
2022/12/16 04:31:14;;;;;;;3.37;1.90;;;3.40;43.10;;;;;;4991886;28;20676;-73
